sensor_id;sensor_type;location;lat;lon;timestamp;P1;durP1;ratioP1;P2;durP2;ratioP2
72261;SDS011;60173;52.112;8.648;2022-12-29T00:00:05;2.15;;;1.02;;
72261;SDS011;60173;52.112;8.648;2022-12-29T00:02:33;1.73;;;1.30;;
72261;SDS011;60173;52.112;8.648;2022-12-29T00:04:59;3.33;;;1.48;;
72261;SDS011;60173;52.112;8.648;2022-12-29T00:07:25;1.83;;;1.38;;
72261;SDS011;60173;52.112;8.648;2022-12-29T00:09:52;2.35;;;1.40;;
72261;SDS011;60173;52.112;8.648;2022-12-29T00:12:18;1.50;;;1.20;;
72261;SDS011;60173;52.112;8.648;2022-12-29T00:14:44;3.40;;;1.52;;
72261;SDS011;60173;52.112;8.648;2022-12-29T00:17:11;4.03;;;1.70;;
72261;SDS011;60173;52.112;8.648;2022-12-29T00:19:38;1.92;;;1.30;;
72261;SDS011;60173;52.112;8.648;2022-12-29T00:22:04;4.38;;;1.60;;
72261;SDS011;60173;52.112;8.648;2022-12-29T00:24:30;3.42;;;2.05;;
72261;SDS011;60173;52.112;8.648;2022-12-29T00:29:29;4.60;;;1.45;;
72261;SDS011;60173;52.112;8.648;2022-12-29T00:31:55;1.38;;;1.20;;
72261;SDS011;60173;52.112;8.648;2022-12-29T00:34:22;1.20;;;1.10;;
72261;SDS011;60173;52.112;8.648;2022-12-29T00:36:48;2.15;;;1.20;;
72261;SDS011;60173;52.112;8.648;2022-12-29T00:39:16;1.63;;;1.40;;
72261;SDS011;60173;52.112;8.648;2022-12-29T00:41:44;1.85;;;1.15;;
72261;SDS011;60173;52.112;8.648;2022-12-29T00:44:13;3.70;;;1.40;;
72261;SDS011;60173;52.112;8.648;2022-12-29T00:46:40;3.15;;;1.30;;
72261;SDS011;60173;52.112;8.648;2022-12-29T00:49:09;1.63;;;1.15;;
72261;SDS011;60173;52.112;8.648;2022-12-29T00:51:37;2.15;;;1.40;;
72261;SDS011;60173;52.112;8.648;2022-12-29T00:54:04;1.73;;;1.30;;
72261;SDS011;60173;52.112;8.648;2022-12-29T00:56:30;1.33;;;1.10;;
72261;SDS011;60173;52.112;8.648;2022-12-29T00:58:59;2.00;;;1.20;;
72261;SDS011;60173;52.112;8.648;2022-12-29T01:01:27;3.30;;;1.30;;
72261;SDS011;60173;52.112;8.648;2022-12-29T01:03:53;1.40;;;1.10;;
72261;SDS011;60173;52.112;8.648;2022-12-29T01:06:27;1.25;;;1.15;;
72261;SDS011;60173;52.112;8.648;2022-12-29T01:08:53;3.08;;;1.10;;
72261;SDS011;60173;52.112;8.648;2022-12-29T01:11:19;1.38;;;1.20;;
72261;SDS011;60173;52.112;8.648;2022-12-29T01:13:46;1.75;;;1.27;;
72261;SDS011;60173;52.112;8.648;2022-12-29T01:16:12;3.17;;;1.40;;
72261;SDS011;60173;52.112;8.648;2022-12-29T01:18:39;3.03;;;1.20;;
72261;SDS011;60173;52.112;8.648;2022-12-29T01:21:06;1.33;;;1.08;;
72261;SDS011;60173;52.112;8.648;2022-12-29T01:23:32;3.22;;;1.15;;
72261;SDS011;60173;52.112;8.648;2022-12-29T01:26:09;1.77;;;1.35;;
72261;SDS011;60173;52.112;8.648;2022-12-29T01:28:39;1.83;;;1.15;;
72261;SDS011;60173;52.112;8.648;2022-12-29T01:31:06;2.97;;;1.27;;
72261;SDS011;60173;52.112;8.648;2022-12-29T01:33:36;1.70;;;1.08;;
72261;SDS011;60173;52.112;8.648;2022-12-29T01:36:03;1.48;;;1.10;;
72261;SDS011;60173;52.112;8.648;2022-12-29T01:38:32;2.00;;;1.35;;
72261;SDS011;60173;52.112;8.648;2022-12-29T01:41:00;2.17;;;1.50;;
72261;SDS011;60173;52.112;8.648;2022-12-29T01:46:15;2.45;;;1.00;;
72261;SDS011;60173;52.112;8.648;2022-12-29T01:48:44;3.95;;;1.08;;
72261;SDS011;60173;52.112;8.648;2022-12-29T01:51:12;1.65;;;1.00;;
72261;SDS011;60173;52.112;8.648;2022-12-29T01:53:39;1.23;;;0.88;;
72261;SDS011;60173;52.112;8.648;2022-12-29T01:56:06;1.27;;;0.80;;
72261;SDS011;60173;52.112;8.648;2022-12-29T01:58:37;1.83;;;1.20;;
72261;SDS011;60173;52.112;8.648;2022-12-29T02:01:07;1.50;;;0.88;;
72261;SDS011;60173;52.112;8.648;2022-12-29T02:03:34;1.15;;;0.70;;
72261;SDS011;60173;52.112;8.648;2022-12-29T02:06:04;0.57;;;0.57;;
72261;SDS011;60173;52.112;8.648;2022-12-29T02:11:04;1.45;;;0.57;;
72261;SDS011;60173;52.112;8.648;2022-12-29T02:13:31;0.60;;;0.60;;
72261;SDS011;60173;52.112;8.648;2022-12-29T02:19:15;1.40;;;0.80;;
72261;SDS011;60173;52.112;8.648;2022-12-29T02:21:58;1.02;;;0.68;;
72261;SDS011;60173;52.112;8.648;2022-12-29T02:35:23;1.33;;;0.70;;
72261;SDS011;60173;52.112;8.648;2022-12-29T02:40:54;1.15;;;0.65;;
72261;SDS011;60173;52.112;8.648;2022-12-29T02:43:34;0.70;;;0.70;;
72261;SDS011;60173;52.112;8.648;2022-12-29T02:46:34;1.17;;;0.73;;
72261;SDS011;60173;52.112;8.648;2022-12-29T02:51:46;1.20;;;0.70;;
72261;SDS011;60173;52.112;8.648;2022-12-29T02:54:18;0.73;;;0.60;;
72261;SDS011;60173;52.112;8.648;2022-12-29T02:56:45;1.25;;;0.80;;
72261;SDS011;60173;52.112;8.648;2022-12-29T02:59:11;1.25;;;0.80;;
72261;SDS011;60173;52.112;8.648;2022-12-29T03:01:58;2.15;;;0.70;;
72261;SDS011;60173;52.112;8.648;2022-12-29T03:04:39;1.20;;;0.55;;
72261;SDS011;60173;52.112;8.648;2022-12-29T03:07:41;0.80;;;0.63;;
72261;SDS011;60173;52.112;8.648;2022-12-29T03:16:07;0.63;;;0.40;;
72261;SDS011;60173;52.112;8.648;2022-12-29T03:19:06;0.95;;;0.40;;
72261;SDS011;60173;52.112;8.648;2022-12-29T03:21:50;0.60;;;0.60;;
72261;SDS011;60173;52.112;8.648;2022-12-29T03:24:29;0.50;;;0.30;;
72261;SDS011;60173;52.112;8.648;2022-12-29T03:26:59;0.47;;;0.47;;
72261;SDS011;60173;52.112;8.648;2022-12-29T03:29:29;0.32;;;0.32;;
72261;SDS011;60173;52.112;8.648;2022-12-29T03:31:59;0.43;;;0.43;;
72261;SDS011;60173;52.112;8.648;2022-12-29T03:34:28;1.08;;;0.60;;
72261;SDS011;60173;52.112;8.648;2022-12-29T03:36:58;0.43;;;0.43;;
72261;SDS011;60173;52.112;8.648;2022-12-29T03:39:28;0.32;;;0.32;;
72261;SDS011;60173;52.112;8.648;2022-12-29T03:41:56;1.10;;;0.50;;
72261;SDS011;60173;52.112;8.648;2022-12-29T03:44:32;0.40;;;0.40;;
72261;SDS011;60173;52.112;8.648;2022-12-29T03:47:01;0.50;;;0.40;;
72261;SDS011;60173;52.112;8.648;2022-12-29T03:49:28;0.50;;;0.50;;
72261;SDS011;60173;52.112;8.648;2022-12-29T03:51:54;0.85;;;0.50;;
72261;SDS011;60173;52.112;8.648;2022-12-29T03:54:20;1.50;;;0.40;;
72261;SDS011;60173;52.112;8.648;2022-12-29T03:56:47;1.17;;;0.63;;
72261;SDS011;60173;52.112;8.648;2022-12-29T03:59:13;1.42;;;0.60;;
72261;SDS011;60173;52.112;8.648;2022-12-29T04:01:39;0.40;;;0.40;;
72261;SDS011;60173;52.112;8.648;2022-12-29T04:04:06;0.95;;;0.40;;
72261;SDS011;60173;52.112;8.648;2022-12-29T04:06:32;0.50;;;0.40;;
72261;SDS011;60173;52.112;8.648;2022-12-29T04:08:59;0.80;;;0.52;;
72261;SDS011;60173;52.112;8.648;2022-12-29T04:11:25;1.08;;;0.50;;
72261;SDS011;60173;52.112;8.648;2022-12-29T04:13:58;0.77;;;0.47;;
72261;SDS011;60173;52.112;8.648;2022-12-29T04:16:24;2.25;;;0.50;;
72261;SDS011;60173;52.112;8.648;2022-12-29T04:18:51;0.77;;;0.50;;
72261;SDS011;60173;52.112;8.648;2022-12-29T04:21:17;0.68;;;0.43;;
72261;SDS011;60173;52.112;8.648;2022-12-29T04:23:43;2.33;;;0.55;;
72261;SDS011;60173;52.112;8.648;2022-12-29T04:26:10;1.73;;;0.80;;
72261;SDS011;60173;52.112;8.648;2022-12-29T04:28:36;1.40;;;0.50;;
72261;SDS011;60173;52.112;8.648;2022-12-29T04:31:03;2.20;;;0.68;;
72261;SDS011;60173;52.112;8.648;2022-12-29T04:33:30;1.05;;;0.40;;
72261;SDS011;60173;52.112;8.648;2022-12-29T04:35:56;2.80;;;0.68;;
72261;SDS011;60173;52.112;8.648;2022-12-29T04:38:23;2.25;;;0.50;;
72261;SDS011;60173;52.112;8.648;2022-12-29T04:40:50;1.35;;;0.70;;
72261;SDS011;60173;52.112;8.648;2022-12-29T04:43:17;1.48;;;0.70;;
72261;SDS011;60173;52.112;8.648;2022-12-29T04:45:44;1.10;;;0.60;;
72261;SDS011;60173;52.112;8.648;2022-12-29T04:48:11;0.85;;;0.55;;
72261;SDS011;60173;52.112;8.648;2022-12-29T04:50:38;1.30;;;0.70;;
72261;SDS011;60173;52.112;8.648;2022-12-29T04:53:05;1.33;;;0.50;;
72261;SDS011;60173;52.112;8.648;2022-12-29T04:55:32;1.58;;;0.70;;
72261;SDS011;60173;52.112;8.648;2022-12-29T04:57:58;0.98;;;0.60;;
72261;SDS011;60173;52.112;8.648;2022-12-29T05:00:25;1.05;;;0.52;;
72261;SDS011;60173;52.112;8.648;2022-12-29T05:02:51;2.90;;;0.73;;
72261;SDS011;60173;52.112;8.648;2022-12-29T05:05:18;2.22;;;0.85;;
72261;SDS011;60173;52.112;8.648;2022-12-29T05:07:44;0.85;;;0.70;;
72261;SDS011;60173;52.112;8.648;2022-12-29T05:10:11;2.05;;;0.65;;
72261;SDS011;60173;52.112;8.648;2022-12-29T05:12:37;2.58;;;0.80;;
72261;SDS011;60173;52.112;8.648;2022-12-29T05:15:05;2.10;;;0.70;;
72261;SDS011;60173;52.112;8.648;2022-12-29T05:17:33;2.90;;;0.90;;
72261;SDS011;60173;52.112;8.648;2022-12-29T05:19:59;1.30;;;0.70;;
72261;SDS011;60173;52.112;8.648;2022-12-29T05:22:25;1.42;;;0.60;;
72261;SDS011;60173;52.112;8.648;2022-12-29T05:24:52;1.25;;;0.82;;
72261;SDS011;60173;52.112;8.648;2022-12-29T05:27:18;1.63;;;0.70;;
72261;SDS011;60173;52.112;8.648;2022-12-29T05:29:45;2.78;;;0.80;;
72261;SDS011;60173;52.112;8.648;2022-12-29T05:32:11;1.48;;;0.50;;
72261;SDS011;60173;52.112;8.648;2022-12-29T05:34:37;2.08;;;0.65;;
72261;SDS011;60173;52.112;8.648;2022-12-29T05:37:03;1.17;;;0.50;;
72261;SDS011;60173;52.112;8.648;2022-12-29T05:39:30;0.75;;;0.50;;
72261;SDS011;60173;52.112;8.648;2022-12-29T05:41:56;2.28;;;0.63;;
72261;SDS011;60173;52.112;8.648;2022-12-29T05:44:23;2.60;;;0.80;;
72261;SDS011;60173;52.112;8.648;2022-12-29T05:46:49;1.55;;;0.70;;
72261;SDS011;60173;52.112;8.648;2022-12-29T05:49:16;0.98;;;0.50;;
72261;SDS011;60173;52.112;8.648;2022-12-29T05:51:43;1.80;;;0.70;;
72261;SDS011;60173;52.112;8.648;2022-12-29T05:54:09;2.60;;;0.70;;
72261;SDS011;60173;52.112;8.648;2022-12-29T05:56:36;2.35;;;0.60;;
72261;SDS011;60173;52.112;8.648;2022-12-29T05:59:02;3.05;;;0.63;;
72261;SDS011;60173;52.112;8.648;2022-12-29T06:01:28;0.60;;;0.50;;
72261;SDS011;60173;52.112;8.648;2022-12-29T06:03:55;1.35;;;0.60;;
72261;SDS011;60173;52.112;8.648;2022-12-29T06:06:21;0.40;;;0.40;;
72261;SDS011;60173;52.112;8.648;2022-12-29T06:08:48;0.88;;;0.55;;
72261;SDS011;60173;52.112;8.648;2022-12-29T06:11:14;0.93;;;0.43;;
72261;SDS011;60173;52.112;8.648;2022-12-29T06:13:40;0.40;;;0.40;;
72261;SDS011;60173;52.112;8.648;2022-12-29T06:16:07;3.85;;;0.77;;
72261;SDS011;60173;52.112;8.648;2022-12-29T06:18:33;1.58;;;0.70;;
72261;SDS011;60173;52.112;8.648;2022-12-29T06:21:03;0.73;;;0.40;;
72261;SDS011;60173;52.112;8.648;2022-12-29T06:23:30;2.00;;;0.50;;
72261;SDS011;60173;52.112;8.648;2022-12-29T06:25:57;3.17;;;0.95;;
72261;SDS011;60173;52.112;8.648;2022-12-29T06:28:23;2.83;;;0.75;;
72261;SDS011;60173;52.112;8.648;2022-12-29T06:30:49;1.25;;;0.50;;
72261;SDS011;60173;52.112;8.648;2022-12-29T06:33:16;5.13;;;0.63;;
72261;SDS011;60173;52.112;8.648;2022-12-29T06:35:42;1.08;;;0.40;;
72261;SDS011;60173;52.112;8.648;2022-12-29T06:38:09;0.77;;;0.40;;
72261;SDS011;60173;52.112;8.648;2022-12-29T06:40:35;2.38;;;0.70;;
72261;SDS011;60173;52.112;8.648;2022-12-29T06:43:02;4.20;;;0.52;;
72261;SDS011;60173;52.112;8.648;2022-12-29T06:45:28;2.17;;;0.57;;
72261;SDS011;60173;52.112;8.648;2022-12-29T06:47:55;1.98;;;0.47;;
72261;SDS011;60173;52.112;8.648;2022-12-29T06:50:21;1.80;;;0.50;;
72261;SDS011;60173;52.112;8.648;2022-12-29T06:52:47;0.90;;;0.50;;
72261;SDS011;60173;52.112;8.648;2022-12-29T06:55:14;2.70;;;0.50;;
72261;SDS011;60173;52.112;8.648;2022-12-29T06:57:40;2.20;;;0.60;;
72261;SDS011;60173;52.112;8.648;2022-12-29T07:00:06;3.15;;;0.60;;
72261;SDS011;60173;52.112;8.648;2022-12-29T07:02:33;2.17;;;0.55;;
72261;SDS011;60173;52.112;8.648;2022-12-29T07:05:00;1.85;;;0.70;;
72261;SDS011;60173;52.112;8.648;2022-12-29T07:07:26;4.57;;;0.80;;
72261;SDS011;60173;52.112;8.648;2022-12-29T07:09:53;3.30;;;1.10;;
72261;SDS011;60173;52.112;8.648;2022-12-29T07:12:19;1.35;;;1.00;;
72261;SDS011;60173;52.112;8.648;2022-12-29T07:14:45;1.65;;;0.98;;
72261;SDS011;60173;52.112;8.648;2022-12-29T07:17:12;3.75;;;1.33;;
72261;SDS011;60173;52.112;8.648;2022-12-29T07:19:39;4.78;;;1.33;;
72261;SDS011;60173;52.112;8.648;2022-12-29T07:22:05;2.67;;;1.13;;
72261;SDS011;60173;52.112;8.648;2022-12-29T07:24:31;2.08;;;1.33;;
72261;SDS011;60173;52.112;8.648;2022-12-29T07:26:58;4.38;;;1.27;;
72261;SDS011;60173;52.112;8.648;2022-12-29T07:29:27;2.15;;;1.33;;
72261;SDS011;60173;52.112;8.648;2022-12-29T07:31:53;3.33;;;1.23;;
72261;SDS011;60173;52.112;8.648;2022-12-29T07:34:20;5.75;;;1.67;;
72261;SDS011;60173;52.112;8.648;2022-12-29T07:36:46;3.72;;;1.13;;
72261;SDS011;60173;52.112;8.648;2022-12-29T07:39:12;5.88;;;1.40;;
72261;SDS011;60173;52.112;8.648;2022-12-29T07:41:39;4.63;;;1.20;;
72261;SDS011;60173;52.112;8.648;2022-12-29T07:44:05;3.13;;;1.15;;
72261;SDS011;60173;52.112;8.648;2022-12-29T07:46:32;3.72;;;1.10;;
72261;SDS011;60173;52.112;8.648;2022-12-29T07:49:18;7.13;;;1.25;;
72261;SDS011;60173;52.112;8.648;2022-12-29T07:51:44;4.38;;;1.23;;
72261;SDS011;60173;52.112;8.648;2022-12-29T07:54:11;5.88;;;1.63;;
72261;SDS011;60173;52.112;8.648;2022-12-29T07:56:37;6.47;;;1.13;;
72261;SDS011;60173;52.112;8.648;2022-12-29T07:59:04;6.10;;;1.45;;
72261;SDS011;60173;52.112;8.648;2022-12-29T08:01:30;5.97;;;1.20;;
72261;SDS011;60173;52.112;8.648;2022-12-29T08:03:57;5.25;;;1.30;;
72261;SDS011;60173;52.112;8.648;2022-12-29T08:06:23;6.15;;;1.40;;
72261;SDS011;60173;52.112;8.648;2022-12-29T08:08:50;5.25;;;1.30;;
72261;SDS011;60173;52.112;8.648;2022-12-29T08:11:16;5.32;;;1.30;;
72261;SDS011;60173;52.112;8.648;2022-12-29T08:13:42;11.93;;;2.78;;
72261;SDS011;60173;52.112;8.648;2022-12-29T08:16:09;10.13;;;3.55;;
72261;SDS011;60173;52.112;8.648;2022-12-29T08:18:35;17.85;;;6.38;;
72261;SDS011;60173;52.112;8.648;2022-12-29T08:21:02;14.98;;;4.90;;
72261;SDS011;60173;52.112;8.648;2022-12-29T08:23:29;10.73;;;3.85;;
72261;SDS011;60173;52.112;8.648;2022-12-29T08:25:56;9.02;;;2.90;;
72261;SDS011;60173;52.112;8.648;2022-12-29T08:28:24;7.93;;;2.35;;
72261;SDS011;60173;52.112;8.648;2022-12-29T08:30:50;8.40;;;2.30;;
72261;SDS011;60173;52.112;8.648;2022-12-29T08:33:17;9.02;;;2.17;;
72261;SDS011;60173;52.112;8.648;2022-12-29T08:35:43;6.70;;;1.80;;
72261;SDS011;60173;52.112;8.648;2022-12-29T08:38:10;7.57;;;2.15;;
72261;SDS011;60173;52.112;8.648;2022-12-29T08:40:36;10.02;;;2.35;;
72261;SDS011;60173;52.112;8.648;2022-12-29T08:43:03;7.15;;;2.20;;
72261;SDS011;60173;52.112;8.648;2022-12-29T08:45:29;5.30;;;1.50;;
72261;SDS011;60173;52.112;8.648;2022-12-29T08:47:56;6.18;;;1.80;;
72261;SDS011;60173;52.112;8.648;2022-12-29T08:50:22;5.53;;;1.50;;
72261;SDS011;60173;52.112;8.648;2022-12-29T08:52:48;3.63;;;1.35;;
72261;SDS011;60173;52.112;8.648;2022-12-29T08:55:15;5.75;;;1.60;;
72261;SDS011;60173;52.112;8.648;2022-12-29T08:57:41;8.45;;;1.55;;
72261;SDS011;60173;52.112;8.648;2022-12-29T09:00:08;3.80;;;1.52;;
72261;SDS011;60173;52.112;8.648;2022-12-29T09:02:34;5.32;;;1.38;;
72261;SDS011;60173;52.112;8.648;2022-12-29T09:05:01;5.38;;;1.33;;
72261;SDS011;60173;52.112;8.648;2022-12-29T09:07:28;6.18;;;1.48;;
72261;SDS011;60173;52.112;8.648;2022-12-29T09:09:54;4.00;;;1.58;;
72261;SDS011;60173;52.112;8.648;2022-12-29T09:12:20;3.88;;;1.50;;
72261;SDS011;60173;52.112;8.648;2022-12-29T09:14:47;4.43;;;1.60;;
72261;SDS011;60173;52.112;8.648;2022-12-29T09:17:13;4.72;;;1.33;;
72261;SDS011;60173;52.112;8.648;2022-12-29T09:19:39;3.83;;;1.48;;
72261;SDS011;60173;52.112;8.648;2022-12-29T09:22:06;4.45;;;1.45;;
72261;SDS011;60173;52.112;8.648;2022-12-29T09:24:32;4.18;;;1.75;;
72261;SDS011;60173;52.112;8.648;2022-12-29T09:26:58;4.65;;;1.45;;
72261;SDS011;60173;52.112;8.648;2022-12-29T09:29:25;5.82;;;1.65;;
72261;SDS011;60173;52.112;8.648;2022-12-29T09:31:51;3.35;;;1.40;;
72261;SDS011;60173;52.112;8.648;2022-12-29T09:34:17;5.85;;;2.00;;
72261;SDS011;60173;52.112;8.648;2022-12-29T09:36:44;5.35;;;1.60;;
72261;SDS011;60173;52.112;8.648;2022-12-29T09:39:10;5.88;;;1.60;;
72261;SDS011;60173;52.112;8.648;2022-12-29T09:44:24;5.82;;;1.42;;
72261;SDS011;60173;52.112;8.648;2022-12-29T09:46:57;6.45;;;1.77;;
72261;SDS011;60173;52.112;8.648;2022-12-29T09:52:11;4.78;;;1.42;;
72261;SDS011;60173;52.112;8.648;2022-12-29T09:57:30;7.28;;;1.55;;
72261;SDS011;60173;52.112;8.648;2022-12-29T10:00:06;5.22;;;1.50;;
72261;SDS011;60173;52.112;8.648;2022-12-29T10:02:38;9.27;;;1.55;;
72261;SDS011;60173;52.112;8.648;2022-12-29T10:05:13;5.95;;;1.45;;
72261;SDS011;60173;52.112;8.648;2022-12-29T10:07:53;5.63;;;1.45;;
72261;SDS011;60173;52.112;8.648;2022-12-29T10:10:38;7.13;;;1.92;;
72261;SDS011;60173;52.112;8.648;2022-12-29T10:13:15;5.55;;;2.17;;
72261;SDS011;60173;52.112;8.648;2022-12-29T10:16:00;4.38;;;1.33;;
72261;SDS011;60173;52.112;8.648;2022-12-29T10:21:29;4.90;;;1.40;;
72261;SDS011;60173;52.112;8.648;2022-12-29T10:24:13;4.57;;;1.40;;
72261;SDS011;60173;52.112;8.648;2022-12-29T10:26:40;7.18;;;1.40;;
72261;SDS011;60173;52.112;8.648;2022-12-29T10:29:13;5.90;;;1.60;;
72261;SDS011;60173;52.112;8.648;2022-12-29T10:31:45;5.97;;;1.60;;
72261;SDS011;60173;52.112;8.648;2022-12-29T10:40:11;9.13;;;1.73;;
72261;SDS011;60173;52.112;8.648;2022-12-29T10:42:45;4.88;;;1.50;;
72261;SDS011;60173;52.112;8.648;2022-12-29T10:45:16;6.53;;;1.77;;
72261;SDS011;60173;52.112;8.648;2022-12-29T10:47:49;8.35;;;1.70;;
72261;SDS011;60173;52.112;8.648;2022-12-29T10:50:20;8.30;;;1.90;;
72261;SDS011;60173;52.112;8.648;2022-12-29T10:52:48;8.70;;;1.50;;
72261;SDS011;60173;52.112;8.648;2022-12-29T10:55:17;6.07;;;1.60;;
72261;SDS011;60173;52.112;8.648;2022-12-29T10:57:48;6.10;;;1.73;;
72261;SDS011;60173;52.112;8.648;2022-12-29T11:07:49;4.88;;;1.77;;
72261;SDS011;60173;52.112;8.648;2022-12-29T11:10:30;8.48;;;1.77;;
72261;SDS011;60173;52.112;8.648;2022-12-29T11:13:03;8.15;;;1.83;;
72261;SDS011;60173;52.112;8.648;2022-12-29T11:15:43;7.88;;;1.55;;
72261;SDS011;60173;52.112;8.648;2022-12-29T11:20:45;7.00;;;2.10;;
72261;SDS011;60173;52.112;8.648;2022-12-29T11:23:21;5.53;;;1.40;;
72261;SDS011;60173;52.112;8.648;2022-12-29T11:28:42;11.23;;;1.67;;
72261;SDS011;60173;52.112;8.648;2022-12-29T11:31:10;7.25;;;1.42;;
72261;SDS011;60173;52.112;8.648;2022-12-29T11:33:42;6.75;;;1.65;;
72261;SDS011;60173;52.112;8.648;2022-12-29T11:36:13;8.98;;;1.40;;
72261;SDS011;60173;52.112;8.648;2022-12-29T11:38:46;9.40;;;1.38;;
72261;SDS011;60173;52.112;8.648;2022-12-29T11:41:18;10.88;;;1.70;;
72261;SDS011;60173;52.112;8.648;2022-12-29T11:43:48;6.50;;;1.45;;
72261;SDS011;60173;52.112;8.648;2022-12-29T11:46:17;8.35;;;1.63;;
72261;SDS011;60173;52.112;8.648;2022-12-29T11:48:46;4.85;;;1.60;;
72261;SDS011;60173;52.112;8.648;2022-12-29T11:51:16;6.15;;;1.40;;
72261;SDS011;60173;52.112;8.648;2022-12-29T11:53:51;10.13;;;1.80;;
72261;SDS011;60173;52.112;8.648;2022-12-29T11:56:31;4.20;;;1.45;;
72261;SDS011;60173;52.112;8.648;2022-12-29T12:01:54;8.50;;;1.60;;
72261;SDS011;60173;52.112;8.648;2022-12-29T12:04:25;5.57;;;1.40;;
72261;SDS011;60173;52.112;8.648;2022-12-29T12:09:51;8.23;;;1.60;;
72261;SDS011;60173;52.112;8.648;2022-12-29T12:12:37;6.25;;;1.67;;
72261;SDS011;60173;52.112;8.648;2022-12-29T12:15:25;3.22;;;1.23;;
72261;SDS011;60173;52.112;8.648;2022-12-29T12:20:42;4.03;;;1.30;;
72261;SDS011;60173;52.112;8.648;2022-12-29T12:23:14;12.65;;;1.60;;
72261;SDS011;60173;52.112;8.648;2022-12-29T12:25:54;8.18;;;1.42;;
72261;SDS011;60173;52.112;8.648;2022-12-29T12:28:32;6.87;;;1.53;;
72261;SDS011;60173;52.112;8.648;2022-12-29T12:31:04;6.65;;;1.42;;
72261;SDS011;60173;52.112;8.648;2022-12-29T12:33:41;6.90;;;1.35;;
72261;SDS011;60173;52.112;8.648;2022-12-29T12:36:26;8.15;;;1.25;;
72261;SDS011;60173;52.112;8.648;2022-12-29T12:39:04;9.18;;;2.05;;
72261;SDS011;60173;52.112;8.648;2022-12-29T12:44:27;7.20;;;1.67;;
72261;SDS011;60173;52.112;8.648;2022-12-29T12:47:11;6.05;;;1.42;;
72261;SDS011;60173;52.112;8.648;2022-12-29T12:50:16;7.90;;;1.67;;
72261;SDS011;60173;52.112;8.648;2022-12-29T12:55:42;9.10;;;1.67;;
72261;SDS011;60173;52.112;8.648;2022-12-29T13:03:58;10.60;;;1.75;;
72261;SDS011;60173;52.112;8.648;2022-12-29T13:12:12;8.65;;;1.88;;
72261;SDS011;60173;52.112;8.648;2022-12-29T13:14:43;10.32;;;1.75;;
72261;SDS011;60173;52.112;8.648;2022-12-29T13:17:31;6.38;;;1.60;;
72261;SDS011;60173;52.112;8.648;2022-12-29T13:20:20;8.70;;;1.63;;
72261;SDS011;60173;52.112;8.648;2022-12-29T13:22:53;8.38;;;1.55;;
72261;SDS011;60173;52.112;8.648;2022-12-29T13:26:20;8.65;;;1.92;;
72261;SDS011;60173;52.112;8.648;2022-12-29T13:28:32;9.15;;;1.98;;
72261;SDS011;60173;52.112;8.648;2022-12-29T13:31:12;7.82;;;2.08;;
72261;SDS011;60173;52.112;8.648;2022-12-29T13:36:23;10.50;;;2.15;;
72261;SDS011;60173;52.112;8.648;2022-12-29T13:41:43;6.30;;;1.60;;
72261;SDS011;60173;52.112;8.648;2022-12-29T13:44:16;5.93;;;1.67;;
72261;SDS011;60173;52.112;8.648;2022-12-29T13:46:46;7.80;;;1.70;;
72261;SDS011;60173;52.112;8.648;2022-12-29T13:49:16;7.82;;;2.17;;
72261;SDS011;60173;52.112;8.648;2022-12-29T13:51:55;7.45;;;1.67;;
72261;SDS011;60173;52.112;8.648;2022-12-29T14:00:18;7.28;;;1.73;;
72261;SDS011;60173;52.112;8.648;2022-12-29T14:07:49;9.07;;;1.90;;
72261;SDS011;60173;52.112;8.648;2022-12-29T14:13:05;8.57;;;2.25;;
72261;SDS011;60173;52.112;8.648;2022-12-29T14:15:40;7.32;;;1.80;;
72261;SDS011;60173;52.112;8.648;2022-12-29T14:20:50;8.10;;;2.13;;
72261;SDS011;60173;52.112;8.648;2022-12-29T14:25:56;13.40;;;2.17;;
72261;SDS011;60173;52.112;8.648;2022-12-29T14:28:29;6.82;;;1.73;;
72261;SDS011;60173;52.112;8.648;2022-12-29T14:31:04;4.65;;;1.63;;
72261;SDS011;60173;52.112;8.648;2022-12-29T14:33:32;6.10;;;1.90;;
72261;SDS011;60173;52.112;8.648;2022-12-29T14:38:51;10.95;;;2.22;;
72261;SDS011;60173;52.112;8.648;2022-12-29T14:43:51;9.63;;;1.85;;
72261;SDS011;60173;52.112;8.648;2022-12-29T14:46:20;8.65;;;1.83;;
72261;SDS011;60173;52.112;8.648;2022-12-29T14:48:47;8.20;;;2.13;;
72261;SDS011;60173;52.112;8.648;2022-12-29T14:51:20;5.97;;;1.95;;
72261;SDS011;60173;52.112;8.648;2022-12-29T14:53:54;8.35;;;1.92;;
72261;SDS011;60173;52.112;8.648;2022-12-29T14:56:24;7.47;;;1.75;;
72261;SDS011;60173;52.112;8.648;2022-12-29T14:58:58;10.23;;;2.22;;
72261;SDS011;60173;52.112;8.648;2022-12-29T15:01:33;14.70;;;2.47;;
72261;SDS011;60173;52.112;8.648;2022-12-29T15:04:13;7.90;;;1.83;;
72261;SDS011;60173;52.112;8.648;2022-12-29T15:06:43;13.55;;;2.38;;
72261;SDS011;60173;52.112;8.648;2022-12-29T15:09:19;10.65;;;2.00;;
72261;SDS011;60173;52.112;8.648;2022-12-29T15:11:54;5.95;;;1.73;;
72261;SDS011;60173;52.112;8.648;2022-12-29T15:16:56;9.77;;;2.13;;
72261;SDS011;60173;52.112;8.648;2022-12-29T15:19:24;8.15;;;1.98;;
72261;SDS011;60173;52.112;8.648;2022-12-29T15:21:52;11.05;;;2.08;;
72261;SDS011;60173;52.112;8.648;2022-12-29T15:24:20;9.77;;;2.40;;
72261;SDS011;60173;52.112;8.648;2022-12-29T15:26:48;9.45;;;1.90;;
72261;SDS011;60173;52.112;8.648;2022-12-29T15:29:36;10.18;;;2.33;;
72261;SDS011;60173;52.112;8.648;2022-12-29T15:34:43;7.93;;;2.03;;
72261;SDS011;60173;52.112;8.648;2022-12-29T15:37:18;8.35;;;2.08;;
72261;SDS011;60173;52.112;8.648;2022-12-29T15:39:47;8.30;;;1.85;;
72261;SDS011;60173;52.112;8.648;2022-12-29T15:42:27;9.45;;;2.40;;
72261;SDS011;60173;52.112;8.648;2022-12-29T15:45:05;7.32;;;2.30;;
72261;SDS011;60173;52.112;8.648;2022-12-29T15:52:52;9.93;;;1.90;;
72261;SDS011;60173;52.112;8.648;2022-12-29T15:55:19;9.23;;;2.00;;
72261;SDS011;60173;52.112;8.648;2022-12-29T15:58:21;8.55;;;1.95;;
72261;SDS011;60173;52.112;8.648;2022-12-29T16:00:56;7.88;;;1.90;;
72261;SDS011;60173;52.112;8.648;2022-12-29T16:03:25;7.18;;;1.90;;
72261;SDS011;60173;52.112;8.648;2022-12-29T16:06:10;9.63;;;1.83;;
72261;SDS011;60173;52.112;8.648;2022-12-29T16:09:35;9.73;;;2.20;;
72261;SDS011;60173;52.112;8.648;2022-12-29T16:11:46;7.93;;;2.05;;
72261;SDS011;60173;52.112;8.648;2022-12-29T16:16:50;7.88;;;2.10;;
72261;SDS011;60173;52.112;8.648;2022-12-29T16:22:08;7.07;;;1.67;;
72261;SDS011;60173;52.112;8.648;2022-12-29T16:24:38;12.87;;;2.73;;
72261;SDS011;60173;52.112;8.648;2022-12-29T16:27:07;10.68;;;2.20;;
72261;SDS011;60173;52.112;8.648;2022-12-29T16:29:49;13.73;;;2.17;;
72261;SDS011;60173;52.112;8.648;2022-12-29T16:32:30;12.05;;;2.47;;
72261;SDS011;60173;52.112;8.648;2022-12-29T16:35:11;10.98;;;2.50;;
72261;SDS011;60173;52.112;8.648;2022-12-29T16:37:43;8.70;;;2.15;;
72261;SDS011;60173;52.112;8.648;2022-12-29T16:40:29;8.73;;;1.70;;
72261;SDS011;60173;52.112;8.648;2022-12-29T16:43:01;9.75;;;2.20;;
72261;SDS011;60173;52.112;8.648;2022-12-29T16:50:41;8.85;;;2.38;;
72261;SDS011;60173;52.112;8.648;2022-12-29T16:53:25;8.27;;;1.98;;
72261;SDS011;60173;52.112;8.648;2022-12-29T16:55:54;9.93;;;2.10;;
72261;SDS011;60173;52.112;8.648;2022-12-29T16:58:24;9.40;;;2.05;;
72261;SDS011;60173;52.112;8.648;2022-12-29T17:00:56;8.25;;;2.08;;
72261;SDS011;60173;52.112;8.648;2022-12-29T17:03:26;9.68;;;2.20;;
72261;SDS011;60173;52.112;8.648;2022-12-29T17:08:24;17.83;;;2.90;;
72261;SDS011;60173;52.112;8.648;2022-12-29T17:10:55;14.25;;;3.25;;
72261;SDS011;60173;52.112;8.648;2022-12-29T17:13:22;14.07;;;2.72;;
72261;SDS011;60173;52.112;8.648;2022-12-29T17:15:48;11.63;;;2.10;;
72261;SDS011;60173;52.112;8.648;2022-12-29T17:18:15;11.50;;;2.67;;
72261;SDS011;60173;52.112;8.648;2022-12-29T17:20:41;10.30;;;2.40;;
72261;SDS011;60173;52.112;8.648;2022-12-29T17:23:14;10.40;;;2.28;;
72261;SDS011;60173;52.112;8.648;2022-12-29T17:25:51;8.95;;;2.08;;